Wilson Algeciras — 9HA2471 — position and weather

sailwx.info

Track history (hours):
 
Tides and Currents Weather Stations Pressure Air Temp Water Temp Dewpoint Dewpoint Depression Visibility Wind Speed Wind Dir Waves Ship Positions

Wilson Algeciras

Last reported at 2014-Nov-28 13:30 UTC. Time now 2014-Nov-28 20:35 UTC.
Position N 37°16' W 000°59'.

Length 88 m; draft 4.1 m.

Type: Cargo ship. MMSI: 248689000.

Date/timePositionNaut miles runAvg speedWind from/ knotsBaromVisibWave heightAir tempDewpointWater temp
2014-Nov-28 13:30N 37°16' W 000°59'22 9.5
2014-Nov-28 11:08N 37°31' W 000°38'133 9.0
2014-Nov-27 20:19N 39°09' E 001°18'7 9.6
2014-Nov-27 19:33N 39°13' E 001°25'10 9.7
2014-Nov-27 18:33N 39°19' E 001°35'10 9.7
2014-Nov-27 17:33N 39°25' E 001°45'10 9.9
2014-Nov-27 16:33N 39°31' E 001°56'10 9.7
2014-Nov-27 15:33N 39°37' E 002°06'10 9.6
2014-Nov-27 14:33N 39°43' E 002°15'10 9.7
2014-Nov-27 13:33N 39°48' E 002°26'10 9.9
2014-Nov-27 12:33N 39°54' E 002°36'1010.1
2014-Nov-27 11:33N 40°00' E 002°47'1010.0
2014-Nov-27 10:33N 40°06' E 002°57'1010.0
2014-Nov-27 09:33N 40°12' E 003°08'322 9.7
2014-Nov-26 00:27N 43°25' E 008°55'910.1
2014-Nov-25 23:33N 43°30' E 009°05'1010.0
2014-Nov-25 22:34N 43°36' E 009°16'1010.1
2014-Nov-25 21:34N 43°42' E 009°27'1110.5
2014-Nov-25 20:33N 43°48' E 009°38'1010.2
2014-Nov-25 19:33N 43°54' E 009°50'1010.2
2014-Nov-25 18:33N 44°00' E 010°02'2 2.0
2014-Nov-25 17:33N 44°02' E 010°03'0 0.0
2014-Nov-25 16:33N 44°02' E 010°03'0 0.0
2014-Nov-25 15:33N 44°02' E 010°03'0 0.0
2014-Nov-25 14:33N 44°02' E 010°03'0 0.0
2014-Nov-25 13:33N 44°02' E 010°03'0 0.0
2014-Nov-25 12:33N 44°02' E 010°03'0 0.0
2014-Nov-25 11:33N 44°02' E 010°03'0 0.0
2014-Nov-25 10:33N 44°02' E 010°03'0 0.0
2014-Nov-25 09:33N 44°02' E 010°03'0 0.0
2014-Nov-25 08:33N 44°02' E 010°03'0 0.0
2014-Nov-25 07:33N 44°02' E 010°03'0 0.0
2014-Nov-25 06:33N 44°02' E 010°03'0 0.0
2014-Nov-25 05:33N 44°02' E 010°03'0 0.0
2014-Nov-25 04:33N 44°02' E 010°03'0 0.0
2014-Nov-25 03:33N 44°02' E 010°03'0 0.0
2014-Nov-25 02:33N 44°02' E 010°03'0 0.0
2014-Nov-25 01:33N 44°02' E 010°03'0 0.0
2014-Nov-25 00:33N 44°02' E 010°03'0 0.0
2014-Nov-24 23:33N 44°02' E 010°03'0 0.0
2014-Nov-24 22:33N 44°02' E 010°03'0 0.0
2014-Nov-24 21:33N 44°02' E 010°03'0 0.0
2014-Nov-24 20:33N 44°02' E 010°03'0 0.0
2014-Nov-24 19:33N 44°02' E 010°03'0 0.0
2014-Nov-24 18:33N 44°02' E 010°03'0 0.0
2014-Nov-24 17:33N 44°02' E 010°03'0 0.0
2014-Nov-24 16:33N 44°02' E 010°03'0 0.0
2014-Nov-24 15:33N 44°02' E 010°03'0 0.0
2014-Nov-24 14:33N 44°02' E 010°03'0 0.0
2014-Nov-24 13:33N 44°02' E 010°03'4 4.4
2014-Nov-24 12:34N 43°59' E 009°58'8 8.4
2014-Nov-24 11:34N 44°05' E 009°51'1 1.3
2014-Nov-24 10:34N 44°07' E 009°51'0 0.0
2014-Nov-24 09:34N 44°07' E 009°51'0 0.0
2014-Nov-24 08:34N 44°07' E 009°51'0 0.0
2014-Nov-24 07:33N 44°07' E 009°51'0 0.0
2014-Nov-24 06:33N 44°07' E 009°51'3 3.3
2014-Nov-24 05:31N 44°04' E 009°53'0 0.0
2014-Nov-24 04:31N 44°04' E 009°53'0 0.0
2014-Nov-24 03:31N 44°04' E 009°53'0 0.0
2014-Nov-24 02:31N 44°04' E 009°53'0 0.0
2014-Nov-24 01:31N 44°04' E 009°53'0 0.0
2014-Nov-24 00:31N 44°04' E 009°53'0 0.0
2014-Nov-23 23:31N 44°04' E 009°53'0 0.1
2014-Nov-23 22:31N 44°04' E 009°53'0 0.0
2014-Nov-23 21:31N 44°04' E 009°53'0 0.0
2014-Nov-23 20:31N 44°04' E 009°53'0 0.0
2014-Nov-23 19:31N 44°04' E 009°53'0 0.0
2014-Nov-23 18:31N 44°04' E 009°53'0 0.0
2014-Nov-23 17:31N 44°04' E 009°53'0 0.0
2014-Nov-23 16:31N 44°04' E 009°53'0 0.0
2014-Nov-23 15:31N 44°04' E 009°53'0 0.0
2014-Nov-23 14:31N 44°04' E 009°53'0 0.0
2014-Nov-23 13:31N 44°04' E 009°53'0 0.1
2014-Nov-23 12:31N 44°04' E 009°53'0 0.1
2014-Nov-23 11:31N 44°04' E 009°53'0 0.0
2014-Nov-23 10:31N 44°04' E 009°53'0 0.0
2014-Nov-23 09:31N 44°04' E 009°53'0 0.0
2014-Nov-23 08:31N 44°04' E 009°53'0 0.0
2014-Nov-23 07:31N 44°04' E 009°53'1 1.5
2014-Nov-23 06:34N 44°02' E 009°54'9 8.9
2014-Nov-23 05:33N 43°55' E 009°60'8 8.2
2014-Nov-23 04:33N 43°46' E 010°02'8 7.5
2014-Nov-23 03:33N 43°39' E 010°04'7 7.3
2014-Nov-23 02:33N 43°32' E 010°04'7 6.9
2014-Nov-23 01:34N 43°25' E 010°05'7 7.0
2014-Nov-23 00:33N 43°19' E 010°10'7 7.1
2014-Nov-22 23:34N 43°12' E 010°14'374 9.8
2014-Nov-21 09:31N 38°26' E 015°32'1110.5
2014-Nov-21 08:29N 38°18' E 015°42'8 8.1
2014-Nov-21 07:29N 38°11' E 015°37'1110.9
2014-Nov-21 06:30N 38°00' E 015°35'  
Track history (hours):
 
Tides and Currents Weather Stations Pressure Air Temp Water Temp Dewpoint Dewpoint Depression Visibility Wind Speed Wind Dir Waves Ship Positions

Wilson Algeciras

Last reported at 2014-Nov-28 13:30 UTC. Time now 2014-Nov-28 20:35 UTC.
Position N 37°16' W 000°59'.

Length 88 m; draft 4.1 m.

Type: Cargo ship. MMSI: 248689000.

Date/timePositionNaut miles runAvg speedWind from/ knotsBaromVisibWave heightAir tempDewpointWater temp
2014-Nov-28 13:30N 37°16' W 000°59'22 9.5
2014-Nov-28 11:08N 37°31' W 000°38'133 9.0
2014-Nov-27 20:19N 39°09' E 001°18'7 9.6
2014-Nov-27 19:33N 39°13' E 001°25'10 9.7
2014-Nov-27 18:33N 39°19' E 001°35'10 9.7
2014-Nov-27 17:33N 39°25' E 001°45'10 9.9
2014-Nov-27 16:33N 39°31' E 001°56'10 9.7
2014-Nov-27 15:33N 39°37' E 002°06'10 9.6
2014-Nov-27 14:33N 39°43' E 002°15'10 9.7
2014-Nov-27 13:33N 39°48' E 002°26'10 9.9
2014-Nov-27 12:33N 39°54' E 002°36'1010.1
2014-Nov-27 11:33N 40°00' E 002°47'1010.0
2014-Nov-27 10:33N 40°06' E 002°57'1010.0
2014-Nov-27 09:33N 40°12' E 003°08'322 9.7
2014-Nov-26 00:27N 43°25' E 008°55'910.1
2014-Nov-25 23:33N 43°30' E 009°05'1010.0
2014-Nov-25 22:34N 43°36' E 009°16'1010.1
2014-Nov-25 21:34N 43°42' E 009°27'1110.5
2014-Nov-25 20:33N 43°48' E 009°38'1010.2
2014-Nov-25 19:33N 43°54' E 009°50'1010.2
2014-Nov-25 18:33N 44°00' E 010°02'2 2.0
2014-Nov-25 17:33N 44°02' E 010°03'0 0.0
2014-Nov-25 16:33N 44°02' E 010°03'0 0.0
2014-Nov-25 15:33N 44°02' E 010°03'0 0.0
2014-Nov-25 14:33N 44°02' E 010°03'0 0.0
2014-Nov-25 13:33N 44°02' E 010°03'0 0.0
2014-Nov-25 12:33N 44°02' E 010°03'0 0.0
2014-Nov-25 11:33N 44°02' E 010°03'0 0.0
2014-Nov-25 10:33N 44°02' E 010°03'0 0.0
2014-Nov-25 09:33N 44°02' E 010°03'0 0.0
2014-Nov-25 08:33N 44°02' E 010°03'0 0.0
2014-Nov-25 07:33N 44°02' E 010°03'0 0.0
2014-Nov-25 06:33N 44°02' E 010°03'0 0.0
2014-Nov-25 05:33N 44°02' E 010°03'0 0.0
2014-Nov-25 04:33N 44°02' E 010°03'0 0.0
2014-Nov-25 03:33N 44°02' E 010°03'0 0.0
2014-Nov-25 02:33N 44°02' E 010°03'0 0.0
2014-Nov-25 01:33N 44°02' E 010°03'0 0.0
2014-Nov-25 00:33N 44°02' E 010°03'0 0.0
2014-Nov-24 23:33N 44°02' E 010°03'0 0.0
2014-Nov-24 22:33N 44°02' E 010°03'0 0.0
2014-Nov-24 21:33N 44°02' E 010°03'0 0.0
2014-Nov-24 20:33N 44°02' E 010°03'0 0.0
2014-Nov-24 19:33N 44°02' E 010°03'0 0.0
2014-Nov-24 18:33N 44°02' E 010°03'0 0.0
2014-Nov-24 17:33N 44°02' E 010°03'0 0.0
2014-Nov-24 16:33N 44°02' E 010°03'0 0.0
2014-Nov-24 15:33N 44°02' E 010°03'0 0.0
2014-Nov-24 14:33N 44°02' E 010°03'0 0.0
2014-Nov-24 13:33N 44°02' E 010°03'4 4.4
2014-Nov-24 12:34N 43°59' E 009°58'8 8.4
2014-Nov-24 11:34N 44°05' E 009°51'1 1.3
2014-Nov-24 10:34N 44°07' E 009°51'0 0.0
2014-Nov-24 09:34N 44°07' E 009°51'0 0.0
2014-Nov-24 08:34N 44°07' E 009°51'0 0.0
2014-Nov-24 07:33N 44°07' E 009°51'0 0.0
2014-Nov-24 06:33N 44°07' E 009°51'3 3.3
2014-Nov-24 05:31N 44°04' E 009°53'0 0.0
2014-Nov-24 04:31N 44°04' E 009°53'0 0.0
2014-Nov-24 03:31N 44°04' E 009°53'0 0.0
2014-Nov-24 02:31N 44°04' E 009°53'0 0.0
2014-Nov-24 01:31N 44°04' E 009°53'0 0.0
2014-Nov-24 00:31N 44°04' E 009°53'0 0.0
2014-Nov-23 23:31N 44°04' E 009°53'0 0.1
2014-Nov-23 22:31N 44°04' E 009°53'0 0.0
2014-Nov-23 21:31N 44°04' E 009°53'0 0.0
2014-Nov-23 20:31N 44°04' E 009°53'0 0.0
2014-Nov-23 19:31N 44°04' E 009°53'0 0.0
2014-Nov-23 18:31N 44°04' E 009°53'0 0.0
2014-Nov-23 17:31N 44°04' E 009°53'0 0.0
2014-Nov-23 16:31N 44°04' E 009°53'0 0.0
2014-Nov-23 15:31N 44°04' E 009°53'0 0.0
2014-Nov-23 14:31N 44°04' E 009°53'0 0.0
2014-Nov-23 13:31N 44°04' E 009°53'0 0.1
2014-Nov-23 12:31N 44°04' E 009°53'0 0.1
2014-Nov-23 11:31N 44°04' E 009°53'0 0.0
2014-Nov-23 10:31N 44°04' E 009°53'0 0.0
2014-Nov-23 09:31N 44°04' E 009°53'0 0.0
2014-Nov-23 08:31N 44°04' E 009°53'0 0.0
2014-Nov-23 07:31N 44°04' E 009°53'1 1.5
2014-Nov-23 06:34N 44°02' E 009°54'9 8.9
2014-Nov-23 05:33N 43°55' E 009°60'8 8.2
2014-Nov-23 04:33N 43°46' E 010°02'8 7.5
2014-Nov-23 03:33N 43°39' E 010°04'7 7.3
2014-Nov-23 02:33N 43°32' E 010°04'7 6.9
2014-Nov-23 01:34N 43°25' E 010°05'7 7.0
2014-Nov-23 00:33N 43°19' E 010°10'7 7.1
2014-Nov-22 23:34N 43°12' E 010°14'374 9.8
2014-Nov-21 09:31N 38°26' E 015°32'1110.5
2014-Nov-21 08:29N 38°18' E 015°42'8 8.1
2014-Nov-21 07:29N 38°11' E 015°37'1110.9
2014-Nov-21 06:30N 38°00' E 015°35'  

Dump ship's entire track history